sensor_id;sensor_type;location;lat;lon;timestamp;pressure;altitude;pressure_sealevel;temperature;humidity
16690;BME280;8458;52.220;9.884;2022-11-04T00:01:17;99273.44;;;12.63;83.47
16690;BME280;8458;52.220;9.884;2022-11-04T00:03:45;99276.84;;;12.60;83.37
16690;BME280;8458;52.220;9.884;2022-11-04T00:06:11;99263.97;;;12.64;82.80
16690;BME280;8458;52.220;9.884;2022-11-04T00:08:38;99266.22;;;12.62;83.38
16690;BME280;8458;52.220;9.884;2022-11-04T00:11:04;99264.59;;;12.61;83.61
16690;BME280;8458;52.220;9.884;2022-11-04T00:13:48;99267.75;;;12.68;82.96
16690;BME280;8458;52.220;9.884;2022-11-04T00:16:14;99272.19;;;12.69;82.91
16690;BME280;8458;52.220;9.884;2022-11-04T00:19:00;99280.22;;;12.71;83.00
16690;BME280;8458;52.220;9.884;2022-11-04T00:21:27;99283.88;;;12.80;82.72
16690;BME280;8458;52.220;9.884;2022-11-04T00:24:12;99281.44;;;12.79;83.36
16690;BME280;8458;52.220;9.884;2022-11-04T00:26:57;99281.09;;;12.80;83.85
16690;BME280;8458;52.220;9.884;2022-11-04T00:29:41;99278.66;;;12.79;83.69
16690;BME280;8458;52.220;9.884;2022-11-04T00:32:08;99273.09;;;12.79;83.97
16690;BME280;8458;52.220;9.884;2022-11-04T00:34:53;99273.56;;;12.81;83.94
16690;BME280;8458;52.220;9.884;2022-11-04T00:37:20;99271.97;;;12.80;83.96
16690;BME280;8458;52.220;9.884;2022-11-04T00:39:46;99275.72;;;12.84;84.02
16690;BME280;8458;52.220;9.884;2022-11-04T00:42:13;99275.88;;;12.79;84.16
16690;BME280;8458;52.220;9.884;2022-11-04T00:44:39;99279.59;;;12.74;84.39
16690;BME280;8458;52.220;9.884;2022-11-04T00:47:06;99267.66;;;12.73;84.47
16690;BME280;8458;52.220;9.884;2022-11-04T00:49:32;99270.94;;;12.76;84.36
16690;BME280;8458;52.220;9.884;2022-11-04T00:52:00;99275.38;;;12.77;84.67
16690;BME280;8458;52.220;9.884;2022-11-04T00:54:26;99268.66;;;12.78;84.55
16690;BME280;8458;52.220;9.884;2022-11-04T00:56:53;99265.81;;;12.69;84.69
16690;BME280;8458;52.220;9.884;2022-11-04T00:59:19;99268.91;;;12.67;84.75
16690;BME280;8458;52.220;9.884;2022-11-04T01:01:46;99269.53;;;12.64;85.25
16690;BME280;8458;52.220;9.884;2022-11-04T01:04:12;99270.97;;;12.62;85.97
16690;BME280;8458;52.220;9.884;2022-11-04T01:06:39;99273.44;;;12.63;85.61
16690;BME280;8458;52.220;9.884;2022-11-04T01:09:07;99278.38;;;12.66;85.84
16690;BME280;8458;52.220;9.884;2022-11-04T01:11:35;99276.50;;;12.76;85.25
16690;BME280;8458;52.220;9.884;2022-11-04T01:14:02;99280.41;;;12.74;84.91
16690;BME280;8458;52.220;9.884;2022-11-04T01:16:29;99277.13;;;12.72;86.00
16690;BME280;8458;52.220;9.884;2022-11-04T01:18:56;99275.69;;;12.75;86.52
16690;BME280;8458;52.220;9.884;2022-11-04T01:21:23;99277.53;;;12.80;87.17
16690;BME280;8458;52.220;9.884;2022-11-04T01:23:49;99282.13;;;12.84;88.04
16690;BME280;8458;52.220;9.884;2022-11-04T01:26:19;99288.00;;;12.83;89.38
16690;BME280;8458;52.220;9.884;2022-11-04T01:28:47;99298.50;;;12.86;90.38
16690;BME280;8458;52.220;9.884;2022-11-04T01:31:15;99314.66;;;12.84;91.76
16690;BME280;8458;52.220;9.884;2022-11-04T01:33:42;99316.78;;;12.78;93.98
16690;BME280;8458;52.220;9.884;2022-11-04T01:36:09;99326.06;;;12.73;96.19
16690;BME280;8458;52.220;9.884;2022-11-04T01:38:36;99331.19;;;12.66;97.40
16690;BME280;8458;52.220;9.884;2022-11-04T01:41:03;99339.56;;;12.52;99.40
16690;BME280;8458;52.220;9.884;2022-11-04T01:43:45;99337.72;;;12.48;100.00
16690;BME280;8458;52.220;9.884;2022-11-04T01:46:21;99337.72;;;12.48;100.00
16690;BME280;8458;52.220;9.884;2022-11-04T01:48:52;99344.50;;;12.42;100.00
16690;BME280;8458;52.220;9.884;2022-11-04T01:51:21;99348.94;;;12.43;100.00
16690;BME280;8458;52.220;9.884;2022-11-04T01:53:49;99351.63;;;12.48;100.00
16690;BME280;8458;52.220;9.884;2022-11-04T01:56:18;99346.34;;;12.46;100.00
16690;BME280;8458;52.220;9.884;2022-11-04T01:58:48;99358.28;;;12.47;100.00
16690;BME280;8458;52.220;9.884;2022-11-04T02:01:16;99352.13;;;12.50;100.00
16690;BME280;8458;52.220;9.884;2022-11-04T02:03:48;99340.50;;;12.48;100.00
16690;BME280;8458;52.220;9.884;2022-11-04T02:06:16;99326.59;;;12.48;100.00
16690;BME280;8458;52.220;9.884;2022-11-04T02:08:44;99331.53;;;12.51;100.00
16690;BME280;8458;52.220;9.884;2022-11-04T02:11:11;99330.50;;;12.47;100.00
16690;BME280;8458;52.220;9.884;2022-11-04T02:14:00;99334.63;;;12.49;100.00
16690;BME280;8458;52.220;9.884;2022-11-04T02:16:31;99339.38;;;12.49;100.00
16690;BME280;8458;52.220;9.884;2022-11-04T02:19:12;99333.91;;;12.44;100.00
16690;BME280;8458;52.220;9.884;2022-11-04T02:22:12;99324.31;;;12.50;100.00
16690;BME280;8458;52.220;9.884;2022-11-04T02:25:05;99321.16;;;12.43;100.00
16690;BME280;8458;52.220;9.884;2022-11-04T02:27:45;99326.19;;;12.41;100.00
16690;BME280;8458;52.220;9.884;2022-11-04T02:30:16;99323.94;;;12.43;100.00
16690;BME280;8458;52.220;9.884;2022-11-04T02:33:02;99323.09;;;12.42;100.00
16690;BME280;8458;52.220;9.884;2022-11-04T02:35:39;99330.63;;;12.42;100.00
16690;BME280;8458;52.220;9.884;2022-11-04T02:38:14;99321.16;;;12.43;100.00
16690;BME280;8458;52.220;9.884;2022-11-04T02:40:48;99328.88;;;12.46;100.00
16690;BME280;8458;52.220;9.884;2022-11-04T02:43:22;99310.03;;;12.43;100.00
16690;BME280;8458;52.220;9.884;2022-11-04T02:45:58;99306.09;;;12.44;100.00
16690;BME280;8458;52.220;9.884;2022-11-04T02:48:30;99309.09;;;12.47;100.00
16690;BME280;8458;52.220;9.884;2022-11-04T02:51:04;99317.13;;;12.49;100.00
16690;BME280;8458;52.220;9.884;2022-11-04T02:53:37;99313.31;;;12.45;100.00
16690;BME280;8458;52.220;9.884;2022-11-04T02:56:07;99308.25;;;12.47;100.00
16690;BME280;8458;52.220;9.884;2022-11-04T02:58:38;99308.25;;;12.47;100.00
16690;BME280;8458;52.220;9.884;2022-11-04T03:01:11;99314.97;;;12.46;100.00
16690;BME280;8458;52.220;9.884;2022-11-04T03:03:41;99337.28;;;12.41;99.55
16690;BME280;8458;52.220;9.884;2022-11-04T03:06:11;99343.38;;;12.29;98.38
16690;BME280;8458;52.220;9.884;2022-11-04T03:08:42;99344.72;;;12.31;99.20
16690;BME280;8458;52.220;9.884;2022-11-04T03:11:13;99334.44;;;12.18;98.91
16690;BME280;8458;52.220;9.884;2022-11-04T03:13:43;99347.91;;;12.11;98.90
16690;BME280;8458;52.220;9.884;2022-11-04T03:16:16;99361.91;;;12.06;98.93
16690;BME280;8458;52.220;9.884;2022-11-04T03:18:53;99362.75;;;11.87;98.49
16690;BME280;8458;52.220;9.884;2022-11-04T03:21:23;99370.03;;;11.83;98.09
16690;BME280;8458;52.220;9.884;2022-11-04T03:23:51;99373.44;;;11.80;97.11
16690;BME280;8458;52.220;9.884;2022-11-04T03:26:22;99386.06;;;11.72;95.17
16690;BME280;8458;52.220;9.884;2022-11-04T03:28:56;99395.91;;;11.64;94.63
16690;BME280;8458;52.220;9.884;2022-11-04T03:31:31;99408.53;;;11.57;95.07
16690;BME280;8458;52.220;9.884;2022-11-04T03:34:03;99397.66;;;11.60;94.69
16690;BME280;8458;52.220;9.884;2022-11-04T03:36:29;99407.72;;;11.56;96.55
16690;BME280;8458;52.220;9.884;2022-11-04T03:38:56;99414.91;;;11.57;96.82
16690;BME280;8458;52.220;9.884;2022-11-04T03:41:27;99415.53;;;11.54;96.23
16690;BME280;8458;52.220;9.884;2022-11-04T03:43:55;99418.59;;;11.53;96.15
16690;BME280;8458;52.220;9.884;2022-11-04T03:46:21;99425.28;;;11.52;94.86
16690;BME280;8458;52.220;9.884;2022-11-04T03:48:51;99433.38;;;11.48;94.79
16690;BME280;8458;52.220;9.884;2022-11-04T03:51:18;99432.94;;;11.41;94.87
16690;BME280;8458;52.220;9.884;2022-11-04T03:53:45;99436.81;;;11.40;91.99
16690;BME280;8458;52.220;9.884;2022-11-04T03:56:28;99438.03;;;11.34;92.80
16690;BME280;8458;52.220;9.884;2022-11-04T03:59:10;99434.13;;;11.35;92.92
16690;BME280;8458;52.220;9.884;2022-11-04T04:01:46;99442.28;;;11.26;91.44
16690;BME280;8458;52.220;9.884;2022-11-04T04:04:22;99441.25;;;11.22;91.90
16690;BME280;8458;52.220;9.884;2022-11-04T04:06:54;99441.91;;;11.13;92.63
16690;BME280;8458;52.220;9.884;2022-11-04T04:09:25;99456.38;;;11.10;92.47
16690;BME280;8458;52.220;9.884;2022-11-04T04:12:00;99457.22;;;11.11;91.94
16690;BME280;8458;52.220;9.884;2022-11-04T04:14:33;99462.78;;;11.11;92.27
16690;BME280;8458;52.220;9.884;2022-11-04T04:17:12;99465.00;;;11.09;92.09
16690;BME280;8458;52.220;9.884;2022-11-04T04:19:44;99468.91;;;11.08;91.30
16690;BME280;8458;52.220;9.884;2022-11-04T04:22:17;99474.47;;;11.08;91.21
16690;BME280;8458;52.220;9.884;2022-11-04T04:24:47;99481.19;;;11.02;91.28
16690;BME280;8458;52.220;9.884;2022-11-04T04:27:32;99479.53;;;11.01;91.49
16690;BME280;8458;52.220;9.884;2022-11-04T04:30:03;99469.03;;;10.98;91.66
16690;BME280;8458;52.220;9.884;2022-11-04T04:32:34;99483.19;;;10.96;91.74
16690;BME280;8458;52.220;9.884;2022-11-04T04:35:06;99478.44;;;11.02;91.00
16690;BME280;8458;52.220;9.884;2022-11-04T04:37:52;99493.47;;;10.96;91.72
16690;BME280;8458;52.220;9.884;2022-11-04T04:40:41;99492.63;;;10.95;91.96
16690;BME280;8458;52.220;9.884;2022-11-04T04:43:27;99494.66;;;10.89;91.69
16690;BME280;8458;52.220;9.884;2022-11-04T04:46:11;99503.50;;;10.91;91.89
16690;BME280;8458;52.220;9.884;2022-11-04T04:48:38;99496.78;;;10.98;91.39
16690;BME280;8458;52.220;9.884;2022-11-04T04:51:06;99497.38;;;10.94;91.45
16690;BME280;8458;52.220;9.884;2022-11-04T04:53:33;99504.50;;;11.01;90.24
16690;BME280;8458;52.220;9.884;2022-11-04T04:55:59;99497.84;;;11.02;90.05
16690;BME280;8458;52.220;9.884;2022-11-04T04:58:25;99498.19;;;10.95;89.90
16690;BME280;8458;52.220;9.884;2022-11-04T05:00:52;99506.22;;;10.97;90.14
16690;BME280;8458;52.220;9.884;2022-11-04T05:03:18;99507.34;;;10.96;89.71
16690;BME280;8458;52.220;9.884;2022-11-04T05:05:45;99511.31;;;10.89;89.43
16690;BME280;8458;52.220;9.884;2022-11-04T05:08:12;99507.38;;;10.90;88.80
16690;BME280;8458;52.220;9.884;2022-11-04T05:10:39;99514.06;;;10.89;88.94
16690;BME280;8458;52.220;9.884;2022-11-04T05:13:05;99519.97;;;10.83;89.29
16690;BME280;8458;52.220;9.884;2022-11-04T05:15:49;99516.72;;;10.75;89.60
16690;BME280;8458;52.220;9.884;2022-11-04T05:18:16;99531.69;;;10.74;89.61
16690;BME280;8458;52.220;9.884;2022-11-04T05:20:43;99537.25;;;10.74;89.57
16690;BME280;8458;52.220;9.884;2022-11-04T05:23:09;99546.16;;;10.71;89.35
16690;BME280;8458;52.220;9.884;2022-11-04T05:25:38;99544.78;;;10.69;89.37
16690;BME280;8458;52.220;9.884;2022-11-04T05:28:05;99547.03;;;10.67;89.48
16690;BME280;8458;52.220;9.884;2022-11-04T05:30:31;99557.31;;;10.66;89.02
16690;BME280;8458;52.220;9.884;2022-11-04T05:32:58;99562.84;;;10.66;88.91
16690;BME280;8458;52.220;9.884;2022-11-04T05:35:24;99570.53;;;10.74;88.73
16690;BME280;8458;52.220;9.884;2022-11-04T05:37:51;99553.06;;;10.74;89.04
16690;BME280;8458;52.220;9.884;2022-11-04T05:40:17;99545.28;;;10.76;88.57
16690;BME280;8458;52.220;9.884;2022-11-04T05:42:45;99559.66;;;10.78;88.96
16690;BME280;8458;52.220;9.884;2022-11-04T05:45:12;99578.75;;;10.85;88.96
16690;BME280;8458;52.220;9.884;2022-11-04T05:47:38;99587.88;;;10.85;88.48
16690;BME280;8458;52.220;9.884;2022-11-04T05:50:05;99587.22;;;10.93;88.68
16690;BME280;8458;52.220;9.884;2022-11-04T05:52:32;99588.53;;;11.01;88.10
16690;BME280;8458;52.220;9.884;2022-11-04T05:54:58;99599.91;;;11.00;87.72
16690;BME280;8458;52.220;9.884;2022-11-04T05:57:25;99602.06;;;11.08;87.46
16690;BME280;8458;52.220;9.884;2022-11-04T05:59:53;99597.09;;;11.05;87.70
16690;BME280;8458;52.220;9.884;2022-11-04T06:02:19;99601.00;;;11.04;87.41
16690;BME280;8458;52.220;9.884;2022-11-04T06:04:46;99601.00;;;11.04;87.40
16690;BME280;8458;52.220;9.884;2022-11-04T06:07:12;99609.84;;;11.06;87.55
16690;BME280;8458;52.220;9.884;2022-11-04T06:09:39;99624.50;;;11.11;86.62
16690;BME280;8458;52.220;9.884;2022-11-04T06:12:07;99631.41;;;11.14;86.76
16690;BME280;8458;52.220;9.884;2022-11-04T06:14:34;99621.34;;;11.18;86.86
16690;BME280;8458;52.220;9.884;2022-11-04T06:17:02;99624.13;;;11.18;87.40
16690;BME280;8458;52.220;9.884;2022-11-04T06:19:29;99628.28;;;11.21;87.30
16690;BME280;8458;52.220;9.884;2022-11-04T06:21:55;99636.00;;;11.24;87.12
16690;BME280;8458;52.220;9.884;2022-11-04T06:24:22;99639.84;;;11.28;86.10
16690;BME280;8458;52.220;9.884;2022-11-04T06:26:48;99645.09;;;11.29;86.23
16690;BME280;8458;52.220;9.884;2022-11-04T06:29:15;99647.09;;;11.24;86.16
16690;BME280;8458;52.220;9.884;2022-11-04T06:31:41;99646.50;;;11.27;86.43
16690;BME280;8458;52.220;9.884;2022-11-04T06:34:09;99659.50;;;11.32;85.78
16690;BME280;8458;52.220;9.884;2022-11-04T06:36:36;99674.19;;;11.32;85.15
16690;BME280;8458;52.220;9.884;2022-11-04T06:39:03;99678.41;;;11.29;85.26
16690;BME280;8458;52.220;9.884;2022-11-04T06:41:30;99697.25;;;11.33;85.02
16690;BME280;8458;52.220;9.884;2022-11-04T06:43:57;99692.16;;;11.16;85.13
16690;BME280;8458;52.220;9.884;2022-11-04T06:46:25;99670.19;;;11.19;85.41
16690;BME280;8458;52.220;9.884;2022-11-04T06:48:54;99666.88;;;11.17;85.57
16690;BME280;8458;52.220;9.884;2022-11-04T06:51:22;99680.50;;;11.13;85.60
16690;BME280;8458;52.220;9.884;2022-11-04T06:53:49;99688.22;;;11.17;85.31
16690;BME280;8458;52.220;9.884;2022-11-04T06:56:15;99688.00;;;11.13;85.45
16690;BME280;8458;52.220;9.884;2022-11-04T06:58:41;99688.00;;;11.13;85.43
16690;BME280;8458;52.220;9.884;2022-11-04T07:01:08;99688.00;;;11.13;85.24
16690;BME280;8458;52.220;9.884;2022-11-04T07:03:34;99689.59;;;11.19;85.03
16690;BME280;8458;52.220;9.884;2022-11-04T07:06:05;99683.25;;;11.19;85.05
16690;BME280;8458;52.220;9.884;2022-11-04T07:08:33;99687.03;;;11.28;84.85
16690;BME280;8458;52.220;9.884;2022-11-04T07:11:00;99682.38;;;11.18;84.63
16690;BME280;8458;52.220;9.884;2022-11-04T07:13:26;99691.56;;;11.19;84.63
16690;BME280;8458;52.220;9.884;2022-11-04T07:15:53;99689.38;;;11.16;84.54
16690;BME280;8458;52.220;9.884;2022-11-04T07:18:19;99687.94;;;11.18;84.09
16690;BME280;8458;52.220;9.884;2022-11-04T07:20:46;99687.66;;;11.20;83.55
16690;BME280;8458;52.220;9.884;2022-11-04T07:23:12;99685.22;;;11.13;83.79
16690;BME280;8458;52.220;9.884;2022-11-04T07:25:40;99691.88;;;11.12;83.84
16690;BME280;8458;52.220;9.884;2022-11-04T07:28:07;99681.56;;;11.18;83.50
16690;BME280;8458;52.220;9.884;2022-11-04T07:30:33;99699.09;;;11.13;82.82
16690;BME280;8458;52.220;9.884;2022-11-04T07:33:00;99699.75;;;11.05;83.56
16690;BME280;8458;52.220;9.884;2022-11-04T07:35:26;99703.91;;;11.02;83.62
16690;BME280;8458;52.220;9.884;2022-11-04T07:37:54;99700.84;;;11.04;83.41
16690;BME280;8458;52.220;9.884;2022-11-04T07:40:20;99694.81;;;10.97;83.61
16690;BME280;8458;52.220;9.884;2022-11-04T07:42:48;99700.47;;;10.86;83.16
16690;BME280;8458;52.220;9.884;2022-11-04T07:45:15;99709.53;;;10.92;83.46
16690;BME280;8458;52.220;9.884;2022-11-04T07:47:41;99713.47;;;10.86;83.40
16690;BME280;8458;52.220;9.884;2022-11-04T07:50:08;99712.03;;;10.93;83.51
16690;BME280;8458;52.220;9.884;2022-11-04T07:52:35;99710.13;;;10.89;83.39
16690;BME280;8458;52.220;9.884;2022-11-04T07:55:02;99709.06;;;10.85;84.07
16690;BME280;8458;52.220;9.884;2022-11-04T07:57:28;99722.06;;;10.89;84.34
16690;BME280;8458;52.220;9.884;2022-11-04T07:59:56;99722.53;;;10.97;84.22
16690;BME280;8458;52.220;9.884;2022-11-04T08:02:22;99712.59;;;10.90;84.41
16690;BME280;8458;52.220;9.884;2022-11-04T08:04:49;99712.59;;;10.90;84.86
16690;BME280;8458;52.220;9.884;2022-11-04T08:07:16;99709.88;;;10.85;85.11
16690;BME280;8458;52.220;9.884;2022-11-04T08:09:42;99717.91;;;10.87;85.43
16690;BME280;8458;52.220;9.884;2022-11-04T08:12:09;99723.38;;;10.97;85.36
16690;BME280;8458;52.220;9.884;2022-11-04T08:14:35;99726.41;;;11.01;84.89
16690;BME280;8458;52.220;9.884;2022-11-04T08:17:03;99733.06;;;11.00;85.17
16690;BME280;8458;52.220;9.884;2022-11-04T08:19:29;99731.88;;;11.06;85.26
16690;BME280;8458;52.220;9.884;2022-11-04T08:21:56;99732.19;;;11.04;85.36
16690;BME280;8458;52.220;9.884;2022-11-04T08:24:23;99733.56;;;11.07;85.46
16690;BME280;8458;52.220;9.884;2022-11-04T08:26:49;99730.72;;;11.12;85.22
16690;BME280;8458;52.220;9.884;2022-11-04T08:29:16;99740.78;;;11.08;85.36
16690;BME280;8458;52.220;9.884;2022-11-04T08:31:42;99740.78;;;11.08;85.23
16690;BME280;8458;52.220;9.884;2022-11-04T08:34:10;99740.78;;;11.08;85.32
16690;BME280;8458;52.220;9.884;2022-11-04T08:36:39;99738.28;;;11.06;85.28
16690;BME280;8458;52.220;9.884;2022-11-04T08:39:08;99736.63;;;11.05;84.94
16690;BME280;8458;52.220;9.884;2022-11-04T08:41:35;99744.41;;;11.03;84.69
16690;BME280;8458;52.220;9.884;2022-11-04T08:44:03;99746.16;;;10.94;84.87
16690;BME280;8458;52.220;9.884;2022-11-04T08:46:32;99749.22;;;10.92;85.78
16690;BME280;8458;52.220;9.884;2022-11-04T08:48:59;99750.28;;;10.97;86.09
16690;BME280;8458;52.220;9.884;2022-11-04T08:51:28;99779.09;;;11.01;85.48
16690;BME280;8458;52.220;9.884;2022-11-04T08:53:55;99776.38;;;10.96;85.90
16690;BME280;8458;52.220;9.884;2022-11-04T08:56:24;99784.13;;;10.99;86.67
16690;BME280;8458;52.220;9.884;2022-11-04T08:58:51;99793.47;;;11.08;86.23
16690;BME280;8458;52.220;9.884;2022-11-04T09:01:19;99782.91;;;11.10;86.07
16690;BME280;8458;52.220;9.884;2022-11-04T09:03:46;99782.09;;;11.09;86.83
16690;BME280;8458;52.220;9.884;2022-11-04T09:06:16;99780.09;;;11.15;85.14
16690;BME280;8458;52.220;9.884;2022-11-04T09:08:45;99790.13;;;11.11;84.96
16690;BME280;8458;52.220;9.884;2022-11-04T09:11:13;99785.63;;;11.15;85.93
16690;BME280;8458;52.220;9.884;2022-11-04T09:13:40;99785.63;;;11.15;85.73
16690;BME280;8458;52.220;9.884;2022-11-04T09:16:09;99785.03;;;11.18;84.91
16690;BME280;8458;52.220;9.884;2022-11-04T09:18:37;99775.63;;;11.19;82.90
16690;BME280;8458;52.220;9.884;2022-11-04T09:21:05;99767.34;;;11.14;83.02
16690;BME280;8458;52.220;9.884;2022-11-04T09:23:31;99768.44;;;11.13;81.99
16690;BME280;8458;52.220;9.884;2022-11-04T09:26:05;99773.47;;;11.11;81.74
16690;BME280;8458;52.220;9.884;2022-11-04T09:28:32;99755.75;;;11.07;82.14
16690;BME280;8458;52.220;9.884;2022-11-04T09:30:58;99765.19;;;11.06;83.62
16690;BME280;8458;52.220;9.884;2022-11-04T09:33:24;99763.03;;;10.98;83.75
16690;BME280;8458;52.220;9.884;2022-11-04T09:35:55;99758.31;;;10.98;84.45
16690;BME280;8458;52.220;9.884;2022-11-04T09:38:22;99764.69;;;10.99;84.22
16690;BME280;8458;52.220;9.884;2022-11-04T09:40:48;99759.72;;;10.96;83.79
16690;BME280;8458;52.220;9.884;2022-11-04T09:43:26;99752.75;;;10.98;83.93
16690;BME280;8458;52.220;9.884;2022-11-04T09:45:55;99746.63;;;11.01;84.31
16690;BME280;8458;52.220;9.884;2022-11-04T09:48:25;99755.75;;;11.07;83.98
16690;BME280;8458;52.220;9.884;2022-11-04T09:50:56;99746.03;;;11.09;84.92
16690;BME280;8458;52.220;9.884;2022-11-04T09:53:27;99751.28;;;11.11;84.75
16690;BME280;8458;52.220;9.884;2022-11-04T09:55:57;99746.91;;;11.05;84.00
16690;BME280;8458;52.220;9.884;2022-11-04T09:58:27;99748.06;;;10.99;83.04
16690;BME280;8458;52.220;9.884;2022-11-04T10:01:00;99746.34;;;11.03;83.07
16690;BME280;8458;52.220;9.884;2022-11-04T10:03:40;99745.72;;;11.11;83.42
16690;BME280;8458;52.220;9.884;2022-11-04T10:06:25;99752.34;;;11.15;83.55
16690;BME280;8458;52.220;9.884;2022-11-04T10:09:21;99759.25;;;11.18;83.15
16690;BME280;8458;52.220;9.884;2022-11-04T10:11:59;99759.47;;;11.26;82.45
16690;BME280;8458;52.220;9.884;2022-11-04T10:17:27;99759.41;;;11.32;82.60
16690;BME280;8458;52.220;9.884;2022-11-04T10:20:07;99769.88;;;11.40;82.88
16690;BME280;8458;52.220;9.884;2022-11-04T10:22:48;99770.38;;;11.47;81.65
16690;BME280;8458;52.220;9.884;2022-11-04T10:25:21;99782.53;;;11.51;81.41
16690;BME280;8458;52.220;9.884;2022-11-04T10:27:50;99789.13;;;11.60;79.76
16690;BME280;8458;52.220;9.884;2022-11-04T10:30:20;99803.47;;;11.68;80.61
16690;BME280;8458;52.220;9.884;2022-11-04T10:32:54;99809.06;;;11.62;79.65
16690;BME280;8458;52.220;9.884;2022-11-04T10:35:29;99816.00;;;11.65;81.56
16690;BME280;8458;52.220;9.884;2022-11-04T10:38:04;99817.78;;;11.80;80.60
16690;BME280;8458;52.220;9.884;2022-11-04T10:40:38;99827.56;;;11.72;79.86
16690;BME280;8458;52.220;9.884;2022-11-04T10:43:08;99821.69;;;11.79;80.87
16690;BME280;8458;52.220;9.884;2022-11-04T10:45:41;99820.50;;;11.85;81.21
16690;BME280;8458;52.220;9.884;2022-11-04T10:48:12;99829.38;;;11.87;79.89
16690;BME280;8458;52.220;9.884;2022-11-04T10:50:47;99829.38;;;11.87;79.72
16690;BME280;8458;52.220;9.884;2022-11-04T10:53:18;99824.88;;;11.91;79.34
16690;BME280;8458;52.220;9.884;2022-11-04T10:55:49;99832.59;;;11.99;78.91
16690;BME280;8458;52.220;9.884;2022-11-04T10:58:20;99828.06;;;12.09;78.16
16690;BME280;8458;52.220;9.884;2022-11-04T11:00:50;99825.78;;;12.11;77.97
16690;BME280;8458;52.220;9.884;2022-11-04T11:03:30;99819.13;;;12.12;76.62
16690;BME280;8458;52.220;9.884;2022-11-04T11:06:13;99811.97;;;12.06;77.32
16690;BME280;8458;52.220;9.884;2022-11-04T11:08:41;99816.06;;;12.13;77.57
16690;BME280;8458;52.220;9.884;2022-11-04T11:11:10;99808.59;;;12.09;78.09
16690;BME280;8458;52.220;9.884;2022-11-04T11:13:38;99804.16;;;12.08;77.55
16690;BME280;8458;52.220;9.884;2022-11-04T11:16:09;99797.34;;;12.19;77.75
16690;BME280;8458;52.220;9.884;2022-11-04T11:18:37;99794.03;;;12.17;77.38
16690;BME280;8458;52.220;9.884;2022-11-04T11:21:09;99801.72;;;12.25;75.58
16690;BME280;8458;52.220;9.884;2022-11-04T11:23:39;99806.16;;;12.26;75.25
16690;BME280;8458;52.220;9.884;2022-11-04T11:26:06;99808.41;;;12.24;75.80
16690;BME280;8458;52.220;9.884;2022-11-04T11:28:34;99817.88;;;12.23;76.45
16690;BME280;8458;52.220;9.884;2022-11-04T11:31:05;99802.31;;;12.22;76.68
16690;BME280;8458;52.220;9.884;2022-11-04T11:33:40;99802.31;;;12.22;75.31
16690;BME280;8458;52.220;9.884;2022-11-04T11:36:16;99806.88;;;12.13;75.96
16690;BME280;8458;52.220;9.884;2022-11-04T11:38:56;99811.97;;;12.06;75.86
16690;BME280;8458;52.220;9.884;2022-11-04T11:41:24;99808.81;;;12.12;75.82
16690;BME280;8458;52.220;9.884;2022-11-04T11:43:57;99818.16;;;11.97;75.91
16690;BME280;8458;52.220;9.884;2022-11-04T11:46:27;99818.06;;;12.08;75.97
16690;BME280;8458;52.220;9.884;2022-11-04T11:48:56;99818.06;;;12.08;75.59
16690;BME280;8458;52.220;9.884;2022-11-04T11:51:26;99815.78;;;12.10;75.57
16690;BME280;8458;52.220;9.884;2022-11-04T11:54:02;99811.41;;;12.04;75.80
16690;BME280;8458;52.220;9.884;2022-11-04T11:56:38;99813.09;;;12.05;75.47
16690;BME280;8458;52.220;9.884;2022-11-04T11:59:16;99818.06;;;12.08;75.84
16690;BME280;8458;52.220;9.884;2022-11-04T12:01:47;99815.78;;;12.10;75.54
16690;BME280;8458;52.220;9.884;2022-11-04T12:04:17;99820.66;;;12.23;75.83
16690;BME280;8458;52.220;9.884;2022-11-04T12:06:54;99813.88;;;12.10;75.63
16690;BME280;8458;52.220;9.884;2022-11-04T12:09:31;99813.72;;;12.20;76.27
16690;BME280;8458;52.220;9.884;2022-11-04T12:12:07;99806.22;;;12.21;74.92
16690;BME280;8458;52.220;9.884;2022-11-04T12:14:47;99805.25;;;12.31;75.32
16690;BME280;8458;52.220;9.884;2022-11-04T12:17:29;99798.88;;;12.30;74.89
16690;BME280;8458;52.220;9.884;2022-11-04T12:20:19;99809.25;;;12.44;74.45
16690;BME280;8458;52.220;9.884;2022-11-04T12:22:57;99811.91;;;12.54;75.33
16690;BME280;8458;52.220;9.884;2022-11-04T12:25:29;99815.22;;;12.56;73.30
16690;BME280;8458;52.220;9.884;2022-11-04T12:28:03;99804.97;;;12.51;74.61
16690;BME280;8458;52.220;9.884;2022-11-04T12:30:38;99800.88;;;12.49;73.70
16690;BME280;8458;52.220;9.884;2022-11-04T12:33:20;99811.00;;;12.40;73.30
16690;BME280;8458;52.220;9.884;2022-11-04T12:35:59;99809.56;;;12.42;73.28
16690;BME280;8458;52.220;9.884;2022-11-04T12:38:48;99808.91;;;12.50;74.27
16690;BME280;8458;52.220;9.884;2022-11-04T12:41:26;99824.16;;;12.53;73.95
16690;BME280;8458;52.220;9.884;2022-11-04T12:44:00;99818.00;;;12.56;74.57
16690;BME280;8458;52.220;9.884;2022-11-04T12:46:35;99829.28;;;12.46;73.68
16690;BME280;8458;52.220;9.884;2022-11-04T12:49:56;99832.44;;;12.58;74.62
16690;BME280;8458;52.220;9.884;2022-11-04T12:52:39;99832.88;;;12.65;74.79
16690;BME280;8458;52.220;9.884;2022-11-04T12:55:39;99838.31;;;12.76;74.49
16690;BME280;8458;52.220;9.884;2022-11-04T12:58:19;99845.97;;;12.84;73.75
16690;BME280;8458;52.220;9.884;2022-11-04T13:00:53;99845.38;;;12.87;73.79
16690;BME280;8458;52.220;9.884;2022-11-04T13:03:26;99846.94;;;12.93;72.99
16690;BME280;8458;52.220;9.884;2022-11-04T13:05:58;99858.38;;;12.91;72.94
16690;BME280;8458;52.220;9.884;2022-11-04T13:08:33;99866.97;;;12.95;72.32
16690;BME280;8458;52.220;9.884;2022-11-04T13:11:08;99861.47;;;12.90;71.67
16690;BME280;8458;52.220;9.884;2022-11-04T13:13:51;99861.94;;;12.97;71.57
16690;BME280;8458;52.220;9.884;2022-11-04T13:16:20;99868.09;;;12.94;71.41
16690;BME280;8458;52.220;9.884;2022-11-04T13:18:48;99869.50;;;12.91;71.92
16690;BME280;8458;52.220;9.884;2022-11-04T13:21:18;99863.00;;;13.01;72.02
16690;BME280;8458;52.220;9.884;2022-11-04T13:23:51;99856.16;;;12.94;72.10
16690;BME280;8458;52.220;9.884;2022-11-04T13:26:19;99867.94;;;13.04;72.08
16690;BME280;8458;52.220;9.884;2022-11-04T13:28:51;99869.22;;;13.12;72.18
16690;BME280;8458;52.220;9.884;2022-11-04T13:31:29;99881.88;;;13.04;72.33
16690;BME280;8458;52.220;9.884;2022-11-04T13:34:02;99867.78;;;12.77;72.28